Terminal Aerodrome Forecast
Issued by NWS Twin Cities, MN

Home | Current Version | Previous Version | Text Only | Print | Product List | Glossary On
Versions: 1 2 3 4 5 6 7 8 9 10 11 12
067
FTUS43 KMPX 022330
TAFEAU
TAF
KEAU 022330Z 0300/0324 25004KT P6SM SKC
     FM031200 25006KT P6SM SCT250
     FM031500 27013G20KT P6SM SCT120 BKN200
     FM032200 30015G23KT 6SM -SHRA BKN050=

USA.gov is the U.S. government's official web portal to all federal, state and local government web resources and services.